메인 페이지
METAR-TAF:

METAR-TAF

공항 :

모로니, 코모로

위도: 11-32S, 경도: 043-16E, 고도: 29m

METAR: 누락

시각: 13:49 (10:49 UTC)

예보

예보는 5 시간 49분 전, 05:00시(UTC)에 발표되었습니다.
예보 대상 시간: 13일 06시부터 14일 12시까지 (UTC)
남동13kt
시정 10km 이상
고도 2000ft 상공 구름 조금
일시적
13일 06시부터 13일 14시까지 (UTC)
남남서15kt
전환 중
13일 15시부터 13일 17시까지 (UTC)
동남동3kt
전환 중
14일 04시부터 14일 06시까지 (UTC)
남남서14kt

TAF: FMCH 130500Z 1306/1412 13013KT 9999 FEW020 TEMPO 1306/1314 20015KT BECMG 1315/1317 12003KT BECMG 1404/1406 20014KT

4,000개 이상의 공항 관측 자료 및 예보 (METAR 및 TAF 보고).

지도상에서 검색 가능한 기상관측소가 노란 점과 빨간 점으로 표시되어 있습니다.

기상관측소 명을 보려면 표시 위로 마우스를 이동하세요.

날씨 관측과 예보를 보려면 클릭하세요.

지도 변경 : 확대하려면 엑스 표시가 있는 녹색 버튼, 축소하려면 빼기 표시가 있는 녹색 버튼, 다음 페이지의 지도를 보려면 녹색 화살표를 클릭하세요.


METAR-TAF: